sensor_id;sensor_type;location;lat;lon;timestamp;temperature;humidity
38221;DHT22;24023;51.280;7.148;2023-12-07T00:00:18;4.5;99.9
38221;DHT22;24023;51.280;7.148;2023-12-07T00:05:11;4.5;99.9
38221;DHT22;24023;51.280;7.148;2023-12-07T00:10:13;4.4;99.9
38221;DHT22;24023;51.280;7.148;2023-12-07T00:15:12;4.4;99.9
38221;DHT22;24023;51.280;7.148;2023-12-07T00:20:14;4.4;99.9
38221;DHT22;24023;51.280;7.148;2023-12-07T00:25:10;4.5;99.9
38221;DHT22;24023;51.280;7.148;2023-12-07T00:30:15;4.5;99.9
38221;DHT22;24023;51.280;7.148;2023-12-07T00:35:11;4.4;99.9
38221;DHT22;24023;51.280;7.148;2023-12-07T00:40:13;4.4;99.9
38221;DHT22;24023;51.280;7.148;2023-12-07T00:45:15;4.5;99.9
38221;DHT22;24023;51.280;7.148;2023-12-07T00:50:14;4.5;99.9
38221;DHT22;24023;51.280;7.148;2023-12-07T00:55:11;4.3;99.9
38221;DHT22;24023;51.280;7.148;2023-12-07T01:00:20;4.3;99.9
38221;DHT22;24023;51.280;7.148;2023-12-07T01:05:11;4.2;99.9
38221;DHT22;24023;51.280;7.148;2023-12-07T01:10:13;4.2;99.9
38221;DHT22;24023;51.280;7.148;2023-12-07T01:15:11;4.2;99.9
38221;DHT22;24023;51.280;7.148;2023-12-07T01:20:13;4.2;99.9
38221;DHT22;24023;51.280;7.148;2023-12-07T01:25:10;4.5;99.9
38221;DHT22;24023;51.280;7.148;2023-12-07T01:30:15;4.5;99.9
38221;DHT22;24023;51.280;7.148;2023-12-07T01:35:11;4.5;99.9
38221;DHT22;24023;51.280;7.148;2023-12-07T01:40:13;4.3;99.9
38221;DHT22;24023;51.280;7.148;2023-12-07T01:45:15;4.3;99.9
38221;DHT22;24023;51.280;7.148;2023-12-07T01:50:13;4.3;99.9
38221;DHT22;24023;51.280;7.148;2023-12-07T01:55:11;4.2;99.9
38221;DHT22;24023;51.280;7.148;2023-12-07T02:00:18;4.2;99.9
38221;DHT22;24023;51.280;7.148;2023-12-07T02:05:11;4.3;99.9
38221;DHT22;24023;51.280;7.148;2023-12-07T02:10:13;4.4;99.9
38221;DHT22;24023;51.280;7.148;2023-12-07T02:15:13;4.4;99.9
38221;DHT22;24023;51.280;7.148;2023-12-07T02:20:19;4.4;99.9
38221;DHT22;24023;51.280;7.148;2023-12-07T02:25:11;4.4;99.9
38221;DHT22;24023;51.280;7.148;2023-12-07T02:30:15;4.4;99.9
38221;DHT22;24023;51.280;7.148;2023-12-07T02:35:11;4.2;99.9
38221;DHT22;24023;51.280;7.148;2023-12-07T02:40:15;4.5;99.9
38221;DHT22;24023;51.280;7.148;2023-12-07T02:45:15;4.5;99.9
38221;DHT22;24023;51.280;7.148;2023-12-07T02:50:14;4.4;99.9
38221;DHT22;24023;51.280;7.148;2023-12-07T02:55:11;4.4;99.9
38221;DHT22;24023;51.280;7.148;2023-12-07T03:00:20;4.4;99.9
38221;DHT22;24023;51.280;7.148;2023-12-07T03:05:11;4.3;99.9
38221;DHT22;24023;51.280;7.148;2023-12-07T03:10:13;4.4;99.9
38221;DHT22;24023;51.280;7.148;2023-12-07T03:15:13;4.4;99.9
38221;DHT22;24023;51.280;7.148;2023-12-07T03:20:13;4.1;99.9
38221;DHT22;24023;51.280;7.148;2023-12-07T03:25:10;4.1;99.9
38221;DHT22;24023;51.280;7.148;2023-12-07T03:30:15;4.1;99.9
38221;DHT22;24023;51.280;7.148;2023-12-07T03:35:10;4.3;99.9
38221;DHT22;24023;51.280;7.148;2023-12-07T03:40:13;4.3;99.9
38221;DHT22;24023;51.280;7.148;2023-12-07T03:45:15;4.3;99.9
38221;DHT22;24023;51.280;7.148;2023-12-07T03:50:16;4.2;99.9
38221;DHT22;24023;51.280;7.148;2023-12-07T03:55:14;4.2;99.9
38221;DHT22;24023;51.280;7.148;2023-12-07T04:00:18;4.2;99.9
38221;DHT22;24023;51.280;7.148;2023-12-07T04:05:10;4.3;99.9
38221;DHT22;24023;51.280;7.148;2023-12-07T04:10:14;4.3;99.9
38221;DHT22;24023;51.280;7.148;2023-12-07T04:15:12;4.4;99.9
38221;DHT22;24023;51.280;7.148;2023-12-07T04:20:14;4.4;99.9
38221;DHT22;24023;51.280;7.148;2023-12-07T04:25:11;4.4;99.9
38221;DHT22;24023;51.280;7.148;2023-12-07T04:30:15;4.5;99.9
38221;DHT22;24023;51.280;7.148;2023-12-07T04:35:11;4.5;99.9
38221;DHT22;24023;51.280;7.148;2023-12-07T04:40:14;4.7;99.9
38221;DHT22;24023;51.280;7.148;2023-12-07T04:45:15;4.7;99.9
38221;DHT22;24023;51.280;7.148;2023-12-07T04:50:14;4.8;99.9
38221;DHT22;24023;51.280;7.148;2023-12-07T04:55:11;4.8;99.9
38221;DHT22;24023;51.280;7.148;2023-12-07T05:00:20;4.8;99.9
38221;DHT22;24023;51.280;7.148;2023-12-07T05:05:11;4.6;99.9
38221;DHT22;24023;51.280;7.148;2023-12-07T05:10:13;4.6;99.9
38221;DHT22;24023;51.280;7.148;2023-12-07T05:15:12;4.6;99.9
38221;DHT22;24023;51.280;7.148;2023-12-07T05:20:14;4.6;99.9
38221;DHT22;24023;51.280;7.148;2023-12-07T05:25:11;4.6;99.9
38221;DHT22;24023;51.280;7.148;2023-12-07T05:30:15;5.1;99.9
38221;DHT22;24023;51.280;7.148;2023-12-07T05:35:11;5.1;99.9
38221;DHT22;24023;51.280;7.148;2023-12-07T05:40:14;4.8;99.9
38221;DHT22;24023;51.280;7.148;2023-12-07T05:45:15;4.8;99.9
38221;DHT22;24023;51.280;7.148;2023-12-07T05:50:13;4.8;99.9
38221;DHT22;24023;51.280;7.148;2023-12-07T05:55:10;5.0;99.9
38221;DHT22;24023;51.280;7.148;2023-12-07T06:00:18;5.0;99.9
38221;DHT22;24023;51.280;7.148;2023-12-07T06:05:11;4.7;99.9
38221;DHT22;24023;51.280;7.148;2023-12-07T06:10:14;4.5;99.9
38221;DHT22;24023;51.280;7.148;2023-12-07T06:15:12;4.5;99.9
38221;DHT22;24023;51.280;7.148;2023-12-07T06:20:14;4.6;99.9
38221;DHT22;24023;51.280;7.148;2023-12-07T06:25:11;4.6;99.9
38221;DHT22;24023;51.280;7.148;2023-12-07T06:30:15;4.6;99.9
38221;DHT22;24023;51.280;7.148;2023-12-07T06:35:12;4.6;99.9
38221;DHT22;24023;51.280;7.148;2023-12-07T06:40:13;4.6;99.9
38221;DHT22;24023;51.280;7.148;2023-12-07T06:45:16;4.7;99.9
38221;DHT22;24023;51.280;7.148;2023-12-07T06:50:13;4.7;99.9
38221;DHT22;24023;51.280;7.148;2023-12-07T06:55:11;4.7;99.9
38221;DHT22;24023;51.280;7.148;2023-12-07T07:00:20;4.7;99.9
38221;DHT22;24023;51.280;7.148;2023-12-07T07:05:10;4.7;99.9
38221;DHT22;24023;51.280;7.148;2023-12-07T07:10:13;4.7;99.9
38221;DHT22;24023;51.280;7.148;2023-12-07T07:15:12;5.0;99.9
38221;DHT22;24023;51.280;7.148;2023-12-07T07:20:13;5.0;99.9
38221;DHT22;24023;51.280;7.148;2023-12-07T07:25:10;5.0;99.9
38221;DHT22;24023;51.280;7.148;2023-12-07T07:30:15;4.6;99.9
38221;DHT22;24023;51.280;7.148;2023-12-07T07:35:11;4.6;99.9
38221;DHT22;24023;51.280;7.148;2023-12-07T07:40:14;4.2;99.9
38221;DHT22;24023;51.280;7.148;2023-12-07T07:45:14;4.2;99.9
38221;DHT22;24023;51.280;7.148;2023-12-07T07:50:14;4.2;99.9
38221;DHT22;24023;51.280;7.148;2023-12-07T07:55:11;4.3;99.9
38221;DHT22;24023;51.280;7.148;2023-12-07T08:00:18;4.3;99.9
38221;DHT22;24023;51.280;7.148;2023-12-07T08:05:10;4.8;99.9
38221;DHT22;24023;51.280;7.148;2023-12-07T08:10:13;4.8;99.9
38221;DHT22;24023;51.280;7.148;2023-12-07T08:15:12;4.8;99.9
38221;DHT22;24023;51.280;7.148;2023-12-07T08:20:14;4.3;99.9
38221;DHT22;24023;51.280;7.148;2023-12-07T08:25:11;4.3;99.9
38221;DHT22;24023;51.280;7.148;2023-12-07T08:30:15;4.3;99.9
38221;DHT22;24023;51.280;7.148;2023-12-07T08:35:11;3.9;99.9
38221;DHT22;24023;51.280;7.148;2023-12-07T08:40:13;3.9;99.9
38221;DHT22;24023;51.280;7.148;2023-12-07T08:45:15;4.0;99.9
38221;DHT22;24023;51.280;7.148;2023-12-07T08:50:13;4.2;99.9
38221;DHT22;24023;51.280;7.148;2023-12-07T08:55:10;4.2;99.9
38221;DHT22;24023;51.280;7.148;2023-12-07T09:00:21;4.2;99.9
38221;DHT22;24023;51.280;7.148;2023-12-07T09:05:10;4.4;99.9
38221;DHT22;24023;51.280;7.148;2023-12-07T09:10:13;4.4;99.9
38221;DHT22;24023;51.280;7.148;2023-12-07T09:15:12;5.0;99.9
38221;DHT22;24023;51.280;7.148;2023-12-07T09:20:13;5.0;99.9
38221;DHT22;24023;51.280;7.148;2023-12-07T09:25:10;5.0;99.9
38221;DHT22;24023;51.280;7.148;2023-12-07T09:30:14;5.1;99.9
38221;DHT22;24023;51.280;7.148;2023-12-07T09:35:11;5.1;99.9
38221;DHT22;24023;51.280;7.148;2023-12-07T09:40:15;5.0;99.9
38221;DHT22;24023;51.280;7.148;2023-12-07T09:45:16;5.0;99.9
38221;DHT22;24023;51.280;7.148;2023-12-07T09:50:13;5.0;99.9
38221;DHT22;24023;51.280;7.148;2023-12-07T09:55:11;5.3;99.9
38221;DHT22;24023;51.280;7.148;2023-12-07T10:00:19;5.3;99.9
38221;DHT22;24023;51.280;7.148;2023-12-07T10:05:13;5.3;99.9
38221;DHT22;24023;51.280;7.148;2023-12-07T10:10:14;5.3;99.9
38221;DHT22;24023;51.280;7.148;2023-12-07T10:15:13;5.3;99.9
38221;DHT22;24023;51.280;7.148;2023-12-07T10:20:14;5.4;99.9
38221;DHT22;24023;51.280;7.148;2023-12-07T10:25:11;5.4;99.9
38221;DHT22;24023;51.280;7.148;2023-12-07T10:30:15;5.4;99.9
38221;DHT22;24023;51.280;7.148;2023-12-07T10:35:11;5.4;99.9
38221;DHT22;24023;51.280;7.148;2023-12-07T10:40:14;5.0;99.9
38221;DHT22;24023;51.280;7.148;2023-12-07T10:45:16;5.0;99.9
38221;DHT22;24023;51.280;7.148;2023-12-07T10:50:16;5.0;99.9
38221;DHT22;24023;51.280;7.148;2023-12-07T10:55:15;5.0;99.9
38221;DHT22;24023;51.280;7.148;2023-12-07T11:00:20;5.0;99.9
38221;DHT22;24023;51.280;7.148;2023-12-07T11:05:10;4.4;99.9
38221;DHT22;24023;51.280;7.148;2023-12-07T11:10:18;4.4;99.9
38221;DHT22;24023;51.280;7.148;2023-12-07T11:15:12;4.4;99.9
38221;DHT22;24023;51.280;7.148;2023-12-07T11:20:19;4.6;99.9
38221;DHT22;24023;51.280;7.148;2023-12-07T11:25:10;4.6;99.9
38221;DHT22;24023;51.280;7.148;2023-12-07T11:30:15;4.7;99.9
38221;DHT22;24023;51.280;7.148;2023-12-07T11:35:12;4.7;99.9
38221;DHT22;24023;51.280;7.148;2023-12-07T11:40:13;4.7;99.9
38221;DHT22;24023;51.280;7.148;2023-12-07T11:45:15;4.4;99.9
38221;DHT22;24023;51.280;7.148;2023-12-07T11:50:13;4.4;99.9
38221;DHT22;24023;51.280;7.148;2023-12-07T11:55:12;4.9;99.9
38221;DHT22;24023;51.280;7.148;2023-12-07T12:00:19;4.9;99.9
38221;DHT22;24023;51.280;7.148;2023-12-07T12:05:11;5.3;99.9
38221;DHT22;24023;51.280;7.148;2023-12-07T12:10:13;5.3;99.9
38221;DHT22;24023;51.280;7.148;2023-12-07T12:15:13;5.3;99.9
38221;DHT22;24023;51.280;7.148;2023-12-07T12:20:14;5.3;99.9
38221;DHT22;24023;51.280;7.148;2023-12-07T12:25:10;5.3;99.9
38221;DHT22;24023;51.280;7.148;2023-12-07T12:30:15;5.8;99.9
38221;DHT22;24023;51.280;7.148;2023-12-07T12:35:11;5.8;99.9
38221;DHT22;24023;51.280;7.148;2023-12-07T12:40:15;5.8;99.9
38221;DHT22;24023;51.280;7.148;2023-12-07T12:45:15;5.6;99.9
38221;DHT22;24023;51.280;7.148;2023-12-07T12:50:32;5.6;99.9
38221;DHT22;24023;51.280;7.148;2023-12-07T12:55:11;6.7;99.9
38221;DHT22;24023;51.280;7.148;2023-12-07T13:00:20;6.7;99.9
38221;DHT22;24023;51.280;7.148;2023-12-07T13:05:11;6.7;99.9
38221;DHT22;24023;51.280;7.148;2023-12-07T13:10:14;7.3;99.9
38221;DHT22;24023;51.280;7.148;2023-12-07T13:15:12;7.3;99.9
38221;DHT22;24023;51.280;7.148;2023-12-07T13:20:14;8.4;99.5
38221;DHT22;24023;51.280;7.148;2023-12-07T13:25:11;8.4;99.5
38221;DHT22;24023;51.280;7.148;2023-12-07T13:30:16;8.8;98.2
38221;DHT22;24023;51.280;7.148;2023-12-07T13:35:10;7.7;99.7
38221;DHT22;24023;51.280;7.148;2023-12-07T13:40:14;7.7;99.7
38221;DHT22;24023;51.280;7.148;2023-12-07T13:45:15;7.7;99.7
38221;DHT22;24023;51.280;7.148;2023-12-07T13:50:13;8.6;97.8
38221;DHT22;24023;51.280;7.148;2023-12-07T13:55:10;8.6;97.8
38221;DHT22;24023;51.280;7.148;2023-12-07T14:00:18;7.5;99.7
38221;DHT22;24023;51.280;7.148;2023-12-07T14:05:10;7.5;99.7
38221;DHT22;24023;51.280;7.148;2023-12-07T14:10:13;7.0;99.9
38221;DHT22;24023;51.280;7.148;2023-12-07T14:15:12;7.0;99.9
38221;DHT22;24023;51.280;7.148;2023-12-07T14:20:13;7.0;99.9
38221;DHT22;24023;51.280;7.148;2023-12-07T14:25:11;6.1;99.9
38221;DHT22;24023;51.280;7.148;2023-12-07T14:30:15;6.1;99.9
38221;DHT22;24023;51.280;7.148;2023-12-07T14:35:10;5.6;99.9
38221;DHT22;24023;51.280;7.148;2023-12-07T14:40:14;5.6;99.9
38221;DHT22;24023;51.280;7.148;2023-12-07T14:45:15;5.1;99.9
38221;DHT22;24023;51.280;7.148;2023-12-07T14:50:13;5.1;99.9
38221;DHT22;24023;51.280;7.148;2023-12-07T14:55:11;5.1;99.9
38221;DHT22;24023;51.280;7.148;2023-12-07T15:00:20;5.1;99.9
38221;DHT22;24023;51.280;7.148;2023-12-07T15:05:11;5.1;99.9
38221;DHT22;24023;51.280;7.148;2023-12-07T15:10:13;4.9;99.9
38221;DHT22;24023;51.280;7.148;2023-12-07T15:15:12;4.9;99.9
38221;DHT22;24023;51.280;7.148;2023-12-07T15:20:13;4.9;99.9
38221;DHT22;24023;51.280;7.148;2023-12-07T15:25:11;5.1;99.9
38221;DHT22;24023;51.280;7.148;2023-12-07T15:30:15;5.1;99.9
38221;DHT22;24023;51.280;7.148;2023-12-07T15:35:11;5.0;99.9
38221;DHT22;24023;51.280;7.148;2023-12-07T15:40:13;5.0;99.9
38221;DHT22;24023;51.280;7.148;2023-12-07T15:45:15;5.0;99.9
38221;DHT22;24023;51.280;7.148;2023-12-07T15:50:13;5.0;99.9
38221;DHT22;24023;51.280;7.148;2023-12-07T15:55:10;5.0;99.9
38221;DHT22;24023;51.280;7.148;2023-12-07T16:00:18;4.8;99.9
38221;DHT22;24023;51.280;7.148;2023-12-07T16:05:10;4.8;99.9
38221;DHT22;24023;51.280;7.148;2023-12-07T16:10:13;4.9;99.9
38221;DHT22;24023;51.280;7.148;2023-12-07T16:15:11;4.9;99.9
38221;DHT22;24023;51.280;7.148;2023-12-07T16:20:13;4.9;99.9
38221;DHT22;24023;51.280;7.148;2023-12-07T16:25:10;5.0;99.9
38221;DHT22;24023;51.280;7.148;2023-12-07T16:30:15;5.0;99.9
38221;DHT22;24023;51.280;7.148;2023-12-07T16:35:11;4.9;99.9
38221;DHT22;24023;51.280;7.148;2023-12-07T16:40:14;4.9;99.9
38221;DHT22;24023;51.280;7.148;2023-12-07T16:45:16;4.9;99.9
38221;DHT22;24023;51.280;7.148;2023-12-07T16:50:13;4.7;99.9
38221;DHT22;24023;51.280;7.148;2023-12-07T16:55:10;4.7;99.9
38221;DHT22;24023;51.280;7.148;2023-12-07T17:00:21;4.7;99.9
38221;DHT22;24023;51.280;7.148;2023-12-07T17:05:11;4.7;99.9
38221;DHT22;24023;51.280;7.148;2023-12-07T17:10:13;4.5;99.9
38221;DHT22;24023;51.280;7.148;2023-12-07T17:15:12;4.5;99.9
38221;DHT22;24023;51.280;7.148;2023-12-07T17:20:13;4.5;99.9
38221;DHT22;24023;51.280;7.148;2023-12-07T17:25:10;4.2;99.9
38221;DHT22;24023;51.280;7.148;2023-12-07T17:30:15;4.2;99.9
38221;DHT22;24023;51.280;7.148;2023-12-07T17:35:11;4.2;99.9
38221;DHT22;24023;51.280;7.148;2023-12-07T17:40:13;4.2;99.9
38221;DHT22;24023;51.280;7.148;2023-12-07T17:45:15;4.2;99.9
38221;DHT22;24023;51.280;7.148;2023-12-07T17:50:13;4.4;99.9
38221;DHT22;24023;51.280;7.148;2023-12-07T17:55:10;4.4;99.9
38221;DHT22;24023;51.280;7.148;2023-12-07T18:00:17;4.2;99.9
38221;DHT22;24023;51.280;7.148;2023-12-07T18:05:11;4.2;99.9
38221;DHT22;24023;51.280;7.148;2023-12-07T18:10:13;4.2;99.9
38221;DHT22;24023;51.280;7.148;2023-12-07T18:15:12;4.2;99.9
38221;DHT22;24023;51.280;7.148;2023-12-07T18:20:13;4.2;99.9
38221;DHT22;24023;51.280;7.148;2023-12-07T18:25:11;3.8;99.9
38221;DHT22;24023;51.280;7.148;2023-12-07T18:30:15;3.8;99.9
38221;DHT22;24023;51.280;7.148;2023-12-07T18:35:11;3.8;99.9
38221;DHT22;24023;51.280;7.148;2023-12-07T18:40:13;3.7;99.9
38221;DHT22;24023;51.280;7.148;2023-12-07T18:45:16;3.7;99.9
38221;DHT22;24023;51.280;7.148;2023-12-07T18:50:13;3.7;99.9
38221;DHT22;24023;51.280;7.148;2023-12-07T18:55:11;3.8;99.9
38221;DHT22;24023;51.280;7.148;2023-12-07T19:00:21;3.8;99.9
38221;DHT22;24023;51.280;7.148;2023-12-07T19:05:14;3.8;99.9
38221;DHT22;24023;51.280;7.148;2023-12-07T19:10:13;3.8;99.9
38221;DHT22;24023;51.280;7.148;2023-12-07T19:15:12;3.8;99.9
38221;DHT22;24023;51.280;7.148;2023-12-07T19:20:13;3.6;99.9
38221;DHT22;24023;51.280;7.148;2023-12-07T19:25:11;3.6;99.9
38221;DHT22;24023;51.280;7.148;2023-12-07T19:30:14;3.4;99.9
38221;DHT22;24023;51.280;7.148;2023-12-07T19:35:11;3.4;99.9
38221;DHT22;24023;51.280;7.148;2023-12-07T19:40:14;3.4;99.9
38221;DHT22;24023;51.280;7.148;2023-12-07T19:45:14;3.5;99.9
38221;DHT22;24023;51.280;7.148;2023-12-07T19:50:13;3.5;99.9
38221;DHT22;24023;51.280;7.148;2023-12-07T19:55:11;3.5;99.9
38221;DHT22;24023;51.280;7.148;2023-12-07T20:00:21;3.5;99.9
38221;DHT22;24023;51.280;7.148;2023-12-07T20:05:11;3.3;99.9
38221;DHT22;24023;51.280;7.148;2023-12-07T20:10:13;3.3;99.9
38221;DHT22;24023;51.280;7.148;2023-12-07T20:15:12;3.3;99.9
38221;DHT22;24023;51.280;7.148;2023-12-07T20:20:14;3.4;99.9
38221;DHT22;24023;51.280;7.148;2023-12-07T20:25:11;3.4;99.9
38221;DHT22;24023;51.280;7.148;2023-12-07T20:30:15;3.7;99.9
38221;DHT22;24023;51.280;7.148;2023-12-07T20:35:11;3.7;99.9
38221;DHT22;24023;51.280;7.148;2023-12-07T20:40:13;3.7;99.9
38221;DHT22;24023;51.280;7.148;2023-12-07T20:45:15;3.7;99.9
38221;DHT22;24023;51.280;7.148;2023-12-07T20:50:13;3.7;99.9
38221;DHT22;24023;51.280;7.148;2023-12-07T20:55:10;4.2;99.9
38221;DHT22;24023;51.280;7.148;2023-12-07T21:00:20;4.2;99.9
38221;DHT22;24023;51.280;7.148;2023-12-07T21:05:11;4.2;99.9
38221;DHT22;24023;51.280;7.148;2023-12-07T21:10:13;4.2;99.9
38221;DHT22;24023;51.280;7.148;2023-12-07T21:15:12;4.2;99.9
38221;DHT22;24023;51.280;7.148;2023-12-07T21:20:13;4.0;99.9
38221;DHT22;24023;51.280;7.148;2023-12-07T21:25:10;4.0;99.9
38221;DHT22;24023;51.280;7.148;2023-12-07T21:30:16;4.1;99.9
38221;DHT22;24023;51.280;7.148;2023-12-07T21:35:10;4.1;99.9
38221;DHT22;24023;51.280;7.148;2023-12-07T21:40:13;4.1;99.9
38221;DHT22;24023;51.280;7.148;2023-12-07T21:45:15;4.2;99.9
38221;DHT22;24023;51.280;7.148;2023-12-07T21:50:13;4.2;99.9
38221;DHT22;24023;51.280;7.148;2023-12-07T21:55:10;4.5;99.9
38221;DHT22;24023;51.280;7.148;2023-12-07T22:00:18;4.5;99.9
38221;DHT22;24023;51.280;7.148;2023-12-07T22:05:11;4.5;99.9
38221;DHT22;24023;51.280;7.148;2023-12-07T22:10:13;4.5;99.9
38221;DHT22;24023;51.280;7.148;2023-12-07T22:15:12;4.5;99.9
38221;DHT22;24023;51.280;7.148;2023-12-07T22:20:13;4.4;99.9
38221;DHT22;24023;51.280;7.148;2023-12-07T22:25:11;4.4;99.9
38221;DHT22;24023;51.280;7.148;2023-12-07T22:30:15;4.4;99.9
38221;DHT22;24023;51.280;7.148;2023-12-07T22:35:11;4.6;99.1
38221;DHT22;24023;51.280;7.148;2023-12-07T22:40:14;4.6;99.1
38221;DHT22;24023;51.280;7.148;2023-12-07T22:45:14;4.5;98.9
38221;DHT22;24023;51.280;7.148;2023-12-07T22:50:13;4.5;98.9
38221;DHT22;24023;51.280;7.148;2023-12-07T22:55:10;4.5;98.9
38221;DHT22;24023;51.280;7.148;2023-12-07T23:00:25;4.5;99.6
38221;DHT22;24023;51.280;7.148;2023-12-07T23:05:14;4.5;99.6
38221;DHT22;24023;51.280;7.148;2023-12-07T23:10:13;4.6;98.3
38221;DHT22;24023;51.280;7.148;2023-12-07T23:15:12;4.6;98.3
38221;DHT22;24023;51.280;7.148;2023-12-07T23:20:13;4.7;97.3
38221;DHT22;24023;51.280;7.148;2023-12-07T23:25:10;4.7;97.3
38221;DHT22;24023;51.280;7.148;2023-12-07T23:30:15;4.7;97.3
38221;DHT22;24023;51.280;7.148;2023-12-07T23:35:11;4.9;97.1
38221;DHT22;24023;51.280;7.148;2023-12-07T23:40:14;4.9;97.1
38221;DHT22;24023;51.280;7.148;2023-12-07T23:45:14;5.1;94.9
38221;DHT22;24023;51.280;7.148;2023-12-07T23:50:13;5.1;94.9
38221;DHT22;24023;51.280;7.148;2023-12-07T23:55:12;5.1;94.9
